createdAt,value
2023-02-22T00:00:48.871Z,100.00
2023-02-22T00:03:18.254Z,100.00
2023-02-22T00:05:47.927Z,100.00
2023-02-22T00:08:18.346Z,100.00
2023-02-22T00:10:46.163Z,100.00
2023-02-22T00:13:15.631Z,100.00
2023-02-22T00:15:44.242Z,100.00
2023-02-22T00:18:15.132Z,100.00
2023-02-22T00:20:42.907Z,100.00
2023-02-22T00:23:15.048Z,100.00
2023-02-22T00:25:44.034Z,100.00
2023-02-22T00:28:11.628Z,100.00
2023-02-22T00:30:39.614Z,100.00
2023-02-22T00:33:07.265Z,100.00
2023-02-22T00:35:35.113Z,100.00
2023-02-22T00:38:04.069Z,100.00
2023-02-22T00:40:33.765Z,100.00
2023-02-22T00:43:06.117Z,100.00
2023-02-22T00:45:35.375Z,100.00
2023-02-22T00:48:04.356Z,100.00
2023-02-22T00:50:33.536Z,100.00
2023-02-22T00:53:03.721Z,100.00
2023-02-22T00:55:33.949Z,100.00
2023-02-22T00:58:02.544Z,100.00
2023-02-22T01:00:36.350Z,100.00
2023-02-22T01:03:05.101Z,100.00
2023-02-22T01:05:33.330Z,100.00
2023-02-22T01:08:03.248Z,100.00
2023-02-22T01:10:32.335Z,100.00
2023-02-22T01:13:01.687Z,100.00
2023-02-22T01:15:31.745Z,100.00
2023-02-22T01:18:00.831Z,100.00
2023-02-22T01:20:30.001Z,100.00
2023-02-22T01:22:59.817Z,100.00
2023-02-22T01:25:29.356Z,100.00
2023-02-22T01:27:58.362Z,100.00
2023-02-22T01:30:28.592Z,100.00
2023-02-22T01:32:58.482Z,100.00
2023-02-22T01:35:29.371Z,100.00
2023-02-22T01:37:58.017Z,100.00
2023-02-22T01:40:28.401Z,100.00
2023-02-22T01:42:58.870Z,100.00
2023-02-22T01:46:01.578Z,100.00
2023-02-22T01:48:35.162Z,100.00
2023-02-22T01:51:10.548Z,100.00
2023-02-22T01:53:42.569Z,100.00
2023-02-22T01:56:11.623Z,100.00
2023-02-22T01:58:44.839Z,100.00
2023-02-22T02:01:13.055Z,100.00
2023-02-22T02:03:42.903Z,100.00
2023-02-22T02:06:14.006Z,100.00
2023-02-22T02:08:51.525Z,100.00
2023-02-22T02:11:22.087Z,100.00
2023-02-22T02:13:52.410Z,100.00
2023-02-22T02:16:22.006Z,100.00
2023-02-22T02:18:51.485Z,100.00
2023-02-22T02:21:39.832Z,100.00
2023-02-22T02:24:44.848Z,100.00
2023-02-22T02:27:19.088Z,100.00
2023-02-22T02:30:13.719Z,100.00
2023-02-22T02:32:53.981Z,100.00
2023-02-22T02:35:32.742Z,100.00
2023-02-22T02:38:10.237Z,100.00
2023-02-22T02:40:43.481Z,100.00
2023-02-22T02:43:18.184Z,100.00
2023-02-22T02:45:50.649Z,100.00
2023-02-22T02:48:24.340Z,100.00
2023-02-22T02:50:52.959Z,100.00
2023-02-22T02:53:26.113Z,100.00
2023-02-22T02:55:54.090Z,100.00
2023-02-22T02:58:24.552Z,100.00
2023-02-22T03:00:57.443Z,100.00
2023-02-22T03:03:57.792Z,100.00
2023-02-22T03:06:55.645Z,100.00
2023-02-22T03:09:38.851Z,100.00
2023-02-22T03:12:18.566Z,100.00
2023-02-22T03:15:01.280Z,100.00
2023-02-22T03:17:41.410Z,100.00
2023-02-22T03:20:17.753Z,100.00
2023-02-22T03:22:53.199Z,100.00
2023-02-22T03:25:23.626Z,100.00
2023-02-22T03:27:56.505Z,100.00
2023-02-22T03:30:32.551Z,100.00
2023-02-22T03:33:08.947Z,100.00
2023-02-22T03:35:44.089Z,100.00
2023-02-22T03:38:16.834Z,100.00
2023-02-22T03:40:51.003Z,100.00
2023-02-22T03:43:24.862Z,100.00
2023-02-22T03:45:55.914Z,100.00
2023-02-22T03:48:32.006Z,100.00
2023-02-22T03:51:04.865Z,100.00
2023-02-22T03:53:37.011Z,100.00
2023-02-22T03:56:10.396Z,100.00
2023-02-22T03:58:40.586Z,100.00
2023-02-22T04:01:08.322Z,100.00
2023-02-22T04:03:35.977Z,100.00
2023-02-22T04:06:05.326Z,100.00
2023-02-22T04:08:33.078Z,100.00
2023-02-22T04:11:01.292Z,100.00
2023-02-22T04:13:29.526Z,100.00
2023-02-22T04:15:58.646Z,100.00
2023-02-22T04:18:26.410Z,100.00
2023-02-22T04:20:54.429Z,100.00
2023-02-22T04:23:32.481Z,100.00
2023-02-22T04:26:00.340Z,100.00
2023-02-22T04:28:27.935Z,100.00
2023-02-22T04:31:06.890Z,100.00
2023-02-22T04:33:34.602Z,100.00
2023-02-22T04:36:02.709Z,100.00
2023-02-22T04:38:35.005Z,100.00
2023-02-22T04:41:02.987Z,100.00
2023-02-22T04:43:30.717Z,100.00
2023-02-22T04:46:08.600Z,100.00
2023-02-22T04:48:36.329Z,100.00
2023-02-22T04:51:04.214Z,100.00
2023-02-22T04:53:33.089Z,100.00
2023-02-22T04:56:02.660Z,100.00
2023-02-22T04:58:31.679Z,100.00
2023-02-22T05:01:00.128Z,100.00
2023-02-22T05:03:28.246Z,100.00
2023-02-22T05:05:55.925Z,100.00
2023-02-22T05:08:23.553Z,100.00
2023-02-22T05:10:51.258Z,100.00
2023-02-22T05:13:20.241Z,100.00
2023-02-22T05:15:48.801Z,100.00
2023-02-22T05:18:16.832Z,100.00
2023-02-22T05:20:44.493Z,100.00
2023-02-22T05:23:12.192Z,100.00
2023-02-22T05:25:39.834Z,100.00
2023-02-22T05:28:13.572Z,100.00
2023-02-22T05:30:42.768Z,100.00
2023-02-22T05:33:11.409Z,100.00
2023-02-22T05:35:39.021Z,100.00
2023-02-22T05:38:07.505Z,100.00
2023-02-22T05:40:35.626Z,100.00
2023-02-22T05:43:03.381Z,100.00
2023-02-22T05:45:31.257Z,100.00
2023-02-22T05:48:00.520Z,100.00
2023-02-22T05:50:28.153Z,100.00
2023-02-22T05:52:56.327Z,100.00
2023-02-22T05:55:25.052Z,100.00
2023-02-22T05:57:53.999Z,100.00
2023-02-22T06:00:24.201Z,100.00
2023-02-22T06:02:55.827Z,100.00
2023-02-22T06:05:25.258Z,100.00
2023-02-22T06:07:53.837Z,100.00
2023-02-22T06:10:22.041Z,100.00
2023-02-22T06:12:50.906Z,100.00
2023-02-22T06:15:20.810Z,100.00
2023-02-22T06:17:49.096Z,100.00
2023-02-22T06:20:19.250Z,100.00
2023-02-22T06:22:49.651Z,100.00
2023-02-22T06:25:21.124Z,100.00
2023-02-22T06:27:49.005Z,100.00
2023-02-22T06:30:18.821Z,100.00
2023-02-22T06:32:46.776Z,100.00
2023-02-22T06:35:15.728Z,100.00
2023-02-22T06:37:43.665Z,100.00
2023-02-22T06:40:14.408Z,100.00
2023-02-22T06:42:42.615Z,100.00
2023-02-22T06:45:11.401Z,100.00
2023-02-22T06:47:40.990Z,100.00
2023-02-22T06:50:18.484Z,100.00
2023-02-22T06:52:47.860Z,100.00
2023-02-22T06:55:20.398Z,100.00
2023-02-22T06:57:48.256Z,100.00
2023-02-22T07:00:18.708Z,100.00
2023-02-22T07:02:48.336Z,100.00
2023-02-22T07:05:17.391Z,100.00
2023-02-22T07:07:45.959Z,100.00
2023-02-22T07:10:21.265Z,100.00
2023-02-22T07:12:49.714Z,100.00
2023-02-22T07:15:19.010Z,100.00
2023-02-22T07:17:46.784Z,100.00
2023-02-22T07:20:14.727Z,100.00
2023-02-22T07:22:42.508Z,100.00
2023-02-22T07:25:12.282Z,100.00
2023-02-22T07:27:43.323Z,100.00
2023-02-22T07:30:18.630Z,100.00
2023-02-22T07:32:47.306Z,100.00
2023-02-22T07:35:16.955Z,100.00
2023-02-22T07:37:45.046Z,100.00
2023-02-22T07:40:13.552Z,100.00
2023-02-22T07:42:57.488Z,100.00
2023-02-22T07:45:27.547Z,100.00
2023-02-22T07:47:55.688Z,100.00
2023-02-22T07:50:25.206Z,100.00
2023-02-22T07:52:54.948Z,100.00
2023-02-22T07:55:24.570Z,100.00
2023-02-22T07:57:55.886Z,100.00
2023-02-22T08:00:25.390Z,100.00
2023-02-22T08:02:53.561Z,100.00
2023-02-22T08:05:23.523Z,100.00
2023-02-22T08:07:52.065Z,100.00
2023-02-22T08:10:22.430Z,100.00
2023-02-22T08:12:50.299Z,100.00
2023-02-22T08:15:23.618Z,100.00
2023-02-22T08:17:51.509Z,100.00
2023-02-22T08:20:19.367Z,100.00
2023-02-22T08:22:47.681Z,100.00
2023-02-22T08:25:18.461Z,100.00
2023-02-22T08:27:46.343Z,100.00
2023-02-22T08:30:17.839Z,100.00
2023-02-22T08:32:47.864Z,100.00
2023-02-22T08:35:16.203Z,100.00
2023-02-22T08:37:44.848Z,100.00
2023-02-22T08:40:14.924Z,100.00
2023-02-22T08:42:42.953Z,100.00
2023-02-22T08:45:14.099Z,100.00
2023-02-22T08:47:42.598Z,100.00
2023-02-22T08:50:18.180Z,100.00
2023-02-22T08:52:46.095Z,100.00
2023-02-22T08:55:15.009Z,100.00
2023-02-22T08:57:42.823Z,100.00
2023-02-22T09:00:11.941Z,100.00
2023-02-22T09:02:39.822Z,100.00
2023-02-22T09:05:08.488Z,100.00
2023-02-22T09:07:37.635Z,100.00
2023-02-22T09:10:06.028Z,100.00
2023-02-22T09:12:33.885Z,100.00
2023-02-22T09:15:01.804Z,100.00
2023-02-22T09:17:30.322Z,100.00
2023-02-22T09:19:58.148Z,100.00
2023-02-22T09:22:25.910Z,100.00
2023-02-22T09:24:56.992Z,100.00
2023-02-22T09:27:28.213Z,100.00
2023-02-22T09:29:56.682Z,100.00
2023-02-22T09:32:24.857Z,100.00
2023-02-22T09:34:52.716Z,100.00
2023-02-22T09:37:20.966Z,100.00
2023-02-22T09:39:48.905Z,100.00
2023-02-22T09:42:27.609Z,100.00
2023-02-22T09:45:03.779Z,100.00
2023-02-22T09:47:39.916Z,100.00
2023-02-22T09:50:15.603Z,100.00
2023-02-22T09:52:55.052Z,97.37
2023-02-22T09:55:34.216Z,99.50
2023-02-22T09:58:08.374Z,97.81
2023-02-22T10:00:38.871Z,98.42
2023-02-22T10:03:22.643Z,92.59
2023-02-22T10:05:56.936Z,97.82
2023-02-22T10:08:31.172Z,93.02
2023-02-22T10:11:10.847Z,92.53
2023-02-22T10:13:51.615Z,95.49
2023-02-22T10:16:25.481Z,95.98
2023-02-22T10:19:11.046Z,92.70
2023-02-22T10:22:04.937Z,91.67
2023-02-22T10:24:43.259Z,87.21
2023-02-22T10:27:18.345Z,86.22
2023-02-22T10:29:53.074Z,84.81
2023-02-22T10:32:29.367Z,84.51
2023-02-22T10:34:59.252Z,80.98
2023-02-22T10:37:29.228Z,81.03
2023-02-22T10:40:06.107Z,77.36
2023-02-22T10:42:33.877Z,75.25
2023-02-22T10:45:03.126Z,74.83
2023-02-22T10:47:31.172Z,73.53
2023-02-22T10:50:01.668Z,74.02
2023-02-22T10:52:31.432Z,71.49
2023-02-22T10:55:14.240Z,67.84
2023-02-22T10:57:45.752Z,69.10
2023-02-22T11:00:26.606Z,69.94
2023-02-22T11:02:55.981Z,68.74
2023-02-22T11:05:36.649Z,70.13
2023-02-22T11:08:24.288Z,68.94
2023-02-22T11:10:54.155Z,68.03
2023-02-22T11:13:27.514Z,67.94
2023-02-22T11:15:59.385Z,68.57
2023-02-22T11:18:31.135Z,69.33
2023-02-22T11:21:06.069Z,68.93
2023-02-22T11:23:34.824Z,70.22
2023-02-22T11:26:07.357Z,69.36
2023-02-22T11:28:37.119Z,68.25
2023-02-22T11:31:19.681Z,68.77
2023-02-22T11:33:52.504Z,66.49
2023-02-22T11:36:37.834Z,68.28
2023-02-22T11:39:11.392Z,66.83
2023-02-22T11:41:39.497Z,66.40
2023-02-22T11:44:22.145Z,64.85
2023-02-22T11:46:55.604Z,64.90
2023-02-22T11:49:33.207Z,65.19
2023-02-22T11:52:18.477Z,64.58
2023-02-22T11:55:09.759Z,63.66
2023-02-22T11:57:51.203Z,64.24
2023-02-22T12:00:27.123Z,64.10
2023-02-22T12:03:28.697Z,63.72
2023-02-22T12:06:08.500Z,63.32
2023-02-22T12:08:51.305Z,63.15
2023-02-22T12:11:25.604Z,62.57
2023-02-22T12:14:12.282Z,62.36
2023-02-22T12:16:59.242Z,61.92
2023-02-22T12:19:36.146Z,62.75
2023-02-22T12:22:08.863Z,62.01
2023-02-22T12:24:39.650Z,61.02
2023-02-22T12:27:12.502Z,61.92
2023-02-22T12:29:45.102Z,62.21
2023-02-22T12:32:17.131Z,62.56
2023-02-22T12:34:49.398Z,61.05
2023-02-22T12:37:21.412Z,60.79
2023-02-22T12:39:59.048Z,60.38
2023-02-22T12:42:34.444Z,58.49
2023-02-22T12:45:10.416Z,59.49
2023-02-22T12:47:46.758Z,59.14
2023-02-22T12:50:22.370Z,59.03
2023-02-22T12:52:58.740Z,58.96
2023-02-22T12:55:32.155Z,59.27
2023-02-22T12:58:08.459Z,58.64
2023-02-22T13:00:45.727Z,57.65
2023-02-22T13:03:30.162Z,56.61
2023-02-22T13:06:15.398Z,57.93
2023-02-22T13:08:54.209Z,57.92
2023-02-22T13:11:29.301Z,57.36
2023-02-22T13:14:10.441Z,57.57
2023-02-22T13:16:46.005Z,57.28
2023-02-22T13:19:22.850Z,57.56
2023-02-22T13:21:58.726Z,58.34
2023-02-22T13:24:33.826Z,59.10
2023-02-22T13:27:05.029Z,58.74
2023-02-22T13:29:38.070Z,57.56
2023-02-22T13:32:20.267Z,58.87
2023-02-22T13:35:14.042Z,57.87
2023-02-22T13:38:10.593Z,58.18
2023-02-22T13:40:57.489Z,58.82
2023-02-22T13:43:51.255Z,58.47
2023-02-22T13:46:36.710Z,58.44
2023-02-22T13:49:29.099Z,58.33
2023-02-22T13:52:01.853Z,58.69
2023-02-22T13:54:42.041Z,58.40
2023-02-22T13:57:21.222Z,58.80
2023-02-22T13:59:49.309Z,59.06
2023-02-22T14:02:36.675Z,59.60
2023-02-22T14:05:45.529Z,59.55
2023-02-22T14:08:45.689Z,60.66
2023-02-22T14:11:54.171Z,59.95
2023-02-22T14:14:24.785Z,59.89
2023-02-22T14:17:32.365Z,60.14
2023-02-22T14:20:20.652Z,59.00
2023-02-22T14:22:52.426Z,60.67
2023-02-22T14:25:37.237Z,60.47
2023-02-22T14:28:07.099Z,60.45
2023-02-22T14:30:40.150Z,59.58
2023-02-22T14:33:54.751Z,60.85
2023-02-22T14:36:25.076Z,60.26
2023-02-22T14:38:54.979Z,60.29
2023-02-22T14:41:26.581Z,60.36
2023-02-22T14:43:56.302Z,61.29
2023-02-22T14:46:30.192Z,61.26
2023-02-22T14:49:01.042Z,60.89
2023-02-22T14:51:32.673Z,61.92
2023-02-22T14:54:07.202Z,61.37
2023-02-22T14:56:44.115Z,61.82
2023-02-22T14:59:17.827Z,62.05
2023-02-22T15:02:01.586Z,61.52
2023-02-22T15:04:33.957Z,62.02
2023-02-22T15:07:08.997Z,61.54
2023-02-22T15:09:37.481Z,61.52
2023-02-22T15:12:14.519Z,61.00
2023-02-22T15:14:44.691Z,61.15
2023-02-22T15:17:19.158Z,62.13
2023-02-22T15:19:49.678Z,62.56
2023-02-22T15:22:23.262Z,62.47
2023-02-22T15:24:59.950Z,62.38
2023-02-22T15:27:28.648Z,62.81
2023-02-22T15:30:04.356Z,62.02
2023-02-22T15:32:36.967Z,61.65
2023-02-22T15:35:16.568Z,61.75
2023-02-22T15:37:45.518Z,61.57
2023-02-22T15:40:16.187Z,62.22
2023-02-22T15:42:47.332Z,63.89
2023-02-22T15:45:21.469Z,61.50
2023-02-22T15:47:51.174Z,63.19
2023-02-22T15:50:23.797Z,63.93
2023-02-22T15:52:58.036Z,62.26
2023-02-22T15:55:29.488Z,61.59
2023-02-22T15:58:01.611Z,61.59
2023-02-22T16:00:36.254Z,63.08
2023-02-22T16:03:07.189Z,62.55
2023-02-22T16:05:40.426Z,62.73
2023-02-22T16:08:17.940Z,64.17
2023-02-22T16:10:54.433Z,63.78
2023-02-22T16:13:32.876Z,64.35
2023-02-22T16:16:02.777Z,65.63
2023-02-22T16:18:34.439Z,65.25
2023-02-22T16:21:06.216Z,66.45
2023-02-22T16:23:45.753Z,67.56
2023-02-22T16:26:23.348Z,73.90
2023-02-22T16:28:53.598Z,76.72
2023-02-22T16:31:22.969Z,81.82
2023-02-22T16:33:53.107Z,83.70
2023-02-22T16:36:24.185Z,84.28
2023-02-22T16:38:52.508Z,86.48
2023-02-22T16:41:20.868Z,88.01
2023-02-22T16:43:51.185Z,89.32
2023-02-22T16:46:20.363Z,88.69
2023-02-22T16:48:48.453Z,89.86
2023-02-22T16:51:23.912Z,91.03
2023-02-22T16:53:53.975Z,91.29
2023-02-22T16:56:30.536Z,91.56
2023-02-22T16:59:02.180Z,94.15
2023-02-22T17:01:30.071Z,95.77
2023-02-22T17:03:57.886Z,96.44
2023-02-22T17:06:29.087Z,100.00
2023-02-22T17:08:56.896Z,100.00
2023-02-22T17:11:24.825Z,100.00
2023-02-22T17:13:52.597Z,100.00
2023-02-22T17:16:20.779Z,100.00
2023-02-22T17:18:49.898Z,100.00
2023-02-22T17:21:17.747Z,100.00
2023-02-22T17:23:47.810Z,100.00
2023-02-22T17:26:16.816Z,100.00
2023-02-22T17:28:45.085Z,100.00
2023-02-22T17:31:21.717Z,100.00
2023-02-22T17:33:51.226Z,100.00
2023-02-22T17:36:20.735Z,100.00
2023-02-22T17:38:50.116Z,100.00
2023-02-22T17:41:17.976Z,98.77
2023-02-22T17:43:45.835Z,98.73
2023-02-22T17:46:13.753Z,99.08
2023-02-22T17:48:41.571Z,100.00
2023-02-22T17:51:11.589Z,100.00
2023-02-22T17:53:40.068Z,97.77
2023-02-22T17:56:12.305Z,92.57
2023-02-22T17:58:41.009Z,89.07
2023-02-22T18:01:21.011Z,91.40
2023-02-22T18:03:49.459Z,90.90
2023-02-22T18:06:22.564Z,88.46
2023-02-22T18:08:55.966Z,89.19
2023-02-22T18:11:27.184Z,85.38
2023-02-22T18:13:55.934Z,86.72
2023-02-22T18:16:25.458Z,86.05
2023-02-22T18:18:53.723Z,89.98
2023-02-22T18:21:21.594Z,92.02
2023-02-22T18:23:49.844Z,91.79
2023-02-22T18:26:19.859Z,92.95
2023-02-22T18:28:49.772Z,88.86
2023-02-22T18:31:19.658Z,88.34
2023-02-22T18:33:49.651Z,89.06
2023-02-22T18:36:22.593Z,89.63
2023-02-22T18:38:52.385Z,89.65
2023-02-22T18:41:25.101Z,89.80
2023-02-22T18:43:57.749Z,92.61
2023-02-22T18:46:27.773Z,91.80
2023-02-22T18:48:56.915Z,92.33
2023-02-22T18:51:25.956Z,97.08
2023-02-22T18:53:57.562Z,98.64
2023-02-22T18:56:29.816Z,100.00
2023-02-22T18:59:01.323Z,99.46
2023-02-22T19:01:30.194Z,100.00
2023-02-22T19:03:58.125Z,99.84
2023-02-22T19:06:26.016Z,93.96
2023-02-22T19:08:53.942Z,94.95
2023-02-22T19:11:23.718Z,96.32
2023-02-22T19:13:54.532Z,96.33
2023-02-22T19:16:25.843Z,95.88
2023-02-22T19:18:57.077Z,98.21
2023-02-22T19:21:26.477Z,100.00
2023-02-22T19:24:01.169Z,100.00
2023-02-22T19:26:29.685Z,100.00
2023-02-22T19:28:59.629Z,100.00
2023-02-22T19:31:31.957Z,100.00
2023-02-22T19:34:02.071Z,100.00
2023-02-22T19:36:30.138Z,100.00
2023-02-22T19:39:01.572Z,100.00
2023-02-22T19:41:30.685Z,100.00
2023-02-22T19:43:59.196Z,100.00
2023-02-22T19:46:28.409Z,100.00
2023-02-22T19:48:56.592Z,100.00
2023-02-22T19:51:27.739Z,100.00
2023-02-22T19:53:57.926Z,100.00
2023-02-22T19:56:27.092Z,100.00
2023-02-22T19:58:56.356Z,100.00
2023-02-22T20:01:26.543Z,100.00
2023-02-22T20:03:59.746Z,100.00
2023-02-22T20:06:34.468Z,100.00
2023-02-22T20:09:03.477Z,100.00
2023-02-22T20:11:31.595Z,100.00
2023-02-22T20:14:00.851Z,100.00
2023-02-22T20:16:29.239Z,100.00
2023-02-22T20:18:58.310Z,100.00
2023-02-22T20:21:30.680Z,100.00
2023-02-22T20:23:59.241Z,100.00
2023-02-22T20:26:29.197Z,100.00
2023-02-22T20:28:57.561Z,100.00
2023-02-22T20:31:25.978Z,100.00
2023-02-22T20:33:55.521Z,100.00
2023-02-22T20:36:25.825Z,100.00
2023-02-22T20:38:55.233Z,100.00
2023-02-22T20:41:25.863Z,100.00
2023-02-22T20:43:55.080Z,100.00
2023-02-22T20:46:23.592Z,100.00
2023-02-22T20:48:55.019Z,100.00
2023-02-22T20:51:24.679Z,100.00
2023-02-22T20:53:52.653Z,100.00
2023-02-22T20:56:22.804Z,100.00
2023-02-22T20:58:50.983Z,100.00
2023-02-22T21:01:22.463Z,100.00
2023-02-22T21:03:51.172Z,100.00
2023-02-22T21:06:21.399Z,100.00
2023-02-22T21:08:54.479Z,100.00
2023-02-22T21:11:24.234Z,100.00
2023-02-22T21:13:52.390Z,100.00
2023-02-22T21:16:22.382Z,100.00
2023-02-22T21:18:51.102Z,100.00
2023-02-22T21:21:18.972Z,100.00
2023-02-22T21:23:51.483Z,100.00
2023-02-22T21:26:23.327Z,100.00
2023-02-22T21:28:51.818Z,100.00
2023-02-22T21:31:21.694Z,100.00
2023-02-22T21:33:50.933Z,100.00
2023-02-22T21:36:19.719Z,100.00
2023-02-22T21:38:51.069Z,100.00
2023-02-22T21:41:20.977Z,100.00
2023-02-22T21:43:50.601Z,100.00
2023-02-22T21:46:18.670Z,100.00
2023-02-22T21:48:48.713Z,100.00
2023-02-22T21:51:19.507Z,100.00
2023-02-22T21:53:49.049Z,100.00
2023-02-22T21:56:19.362Z,100.00
2023-02-22T21:58:50.167Z,100.00
2023-02-22T22:01:18.361Z,100.00
2023-02-22T22:03:46.918Z,100.00
2023-02-22T22:06:15.281Z,100.00
2023-02-22T22:08:46.021Z,100.00
2023-02-22T22:11:17.825Z,100.00
2023-02-22T22:13:45.987Z,100.00
2023-02-22T22:16:16.888Z,100.00
2023-02-22T22:18:45.942Z,100.00
2023-02-22T22:21:17.444Z,100.00
2023-02-22T22:23:47.426Z,100.00
2023-02-22T22:26:17.057Z,100.00
2023-02-22T22:28:46.699Z,100.00
2023-02-22T22:31:18.034Z,100.00
2023-02-22T22:33:47.201Z,100.00
2023-02-22T22:36:17.363Z,100.00
2023-02-22T22:38:47.243Z,100.00
2023-02-22T22:41:17.546Z,100.00
2023-02-22T22:43:46.865Z,100.00
2023-02-22T22:46:18.414Z,100.00
2023-02-22T22:48:47.527Z,100.00
2023-02-22T22:51:18.032Z,100.00
2023-02-22T22:53:47.926Z,100.00
2023-02-22T22:56:17.529Z,100.00
2023-02-22T22:58:48.838Z,100.00
2023-02-22T23:01:26.673Z,100.00
2023-02-22T23:03:56.446Z,100.00
2023-02-22T23:06:27.890Z,100.00
2023-02-22T23:08:59.931Z,100.00
2023-02-22T23:11:33.562Z,100.00
2023-02-22T23:14:04.810Z,100.00
2023-02-22T23:16:34.394Z,100.00
2023-02-22T23:19:02.071Z,100.00
2023-02-22T23:21:29.747Z,100.00
2023-02-22T23:23:58.611Z,100.00
2023-02-22T23:26:27.430Z,100.00
2023-02-22T23:28:59.085Z,100.00
2023-02-22T23:31:29.356Z,100.00
2023-02-22T23:33:59.976Z,100.00
2023-02-22T23:36:28.228Z,100.00
2023-02-22T23:38:56.296Z,100.00
2023-02-22T23:41:25.190Z,100.00
2023-02-22T23:43:53.802Z,100.00
2023-02-22T23:46:21.631Z,100.00
2023-02-22T23:49:01.488Z,100.00
2023-02-22T23:51:38.998Z,100.00
2023-02-22T23:54:08.093Z,100.00
2023-02-22T23:56:36.962Z,100.00
2023-02-22T23:59:10.699Z,100.00
